Time;durP1;ratioP1;P1;durP2;ratioP2;P2;SDS_P1;SDS_P2;PMS_P1;PMS_P2;Temp;Humidity;BMP_temperature;BMP_pressure;BME280_temperature;BME280_humidity;BME280_pressure;Samples;Min_cycle;Max_cycle;Signal;HPM_P1;HPM_P2
2021/03/28 00:01:16;;;;;;;49.63;21.65;;;;;;;3.99;59.86;99958.05;1643916;81;21247;-87
2021/03/28 00:03:57;;;;;;;57.73;18.80;;;;;;;3.99;62.76;99959.33;1671828;85;21313;-86
2021/03/28 00:06:35;;;;;;;48.00;19.60;;;;;;;4.01;58.87;99958.08;1616266;89;21180;-83
2021/03/28 00:09:29;;;;;;;49.88;20.45;;;;;;;3.99;56.18;99958.91;1622772;81;21293;-85
2021/03/28 00:12:29;;;;;;;48.55;21.73;;;;;;;4.00;61.18;99959.79;1693049;81;21143;-84
2021/03/28 00:15:14;;;;;;;56.30;21.68;;;;;;;3.97;58.66;99954.58;1718944;83;21594;-83
2021/03/28 00:18:18;;;;;;;53.63;22.15;;;;;;;3.95;61.71;99956.27;1712448;83;21157;-82
2021/03/28 00:20:47;;;;;;;49.15;19.80;;;;;;;3.95;58.74;99954.55;1708355;80;21806;-84
2021/03/28 00:23:26;;;;;;;103.27;36.03;;;;;;;3.93;58.18;99965.67;1653847;83;21173;-87
2021/03/28 00:26:21;;;;;;;80.30;31.77;;;;;;;3.93;57.57;99963.09;1695598;81;21162;-86
2021/03/28 00:29:52;;;;;;;64.72;26.82;;;;;;;3.91;60.51;99965.64;1665600;82;21165;-87
2021/03/28 00:33:08;;;;;;;57.95;25.10;;;;;;;3.90;58.42;99969.07;1668189;82;21296;-82
2021/03/28 00:35:53;;;;;;;63.83;23.92;;;;;;;3.91;62.62;99964.78;1708556;84;21305;-82
2021/03/28 00:38:41;;;;;;;58.65;23.90;;;;;;;3.92;59.70;99964.81;1736285;81;21307;-89
2021/03/28 00:47:03;;;;;;;51.75;19.77;;;;;;;3.89;60.81;99957.46;1656474;85;21341;-83
2021/03/28 00:49:48;;;;;;;48.98;19.27;;;;;;;3.85;58.19;99961.69;1641397;84;21229;-79
2021/03/28 00:52:22;;;;;;;40.95;16.65;;;;;;;3.78;60.47;99965.02;1644413;85;21273;-82
2021/03/28 00:55:01;;;;;;;41.70;16.60;;;;;;;3.71;62.31;99969.17;1732806;81;21148;-81
2021/03/28 01:00:52;;;;;;;40.92;17.40;;;;;;;3.66;63.21;99969.53;1692909;83;21308;-82
2021/03/28 01:04:10;;;;;;;38.88;17.70;;;;;;;3.64;61.89;99973.79;1725069;81;21177;-86
2021/03/28 01:06:49;;;;;;;44.80;18.60;;;;;;;3.63;60.92;99973.76;1676457;80;21165;-85
2021/03/28 01:09:55;;;;;;;47.17;17.87;;;;;;;3.62;63.79;99966.47;1724708;79;21270;-84
2021/03/28 01:13:14;;;;;;;42.58;18.27;;;;;;;3.64;63.46;99967.76;1694909;81;21329;-84
2021/03/28 01:16:37;;;;;;;40.38;17.40;;;;;;;3.64;63.67;99978.94;1723360;82;21264;-80
2021/03/28 01:19:51;;;;;;;41.20;18.07;;;;;;;3.68;66.45;99973.39;1730503;81;21736;-89
2021/03/28 01:23:08;;;;;;;52.10;22.22;;;;;;;3.70;65.01;99977.75;1637420;86;21236;-84
2021/03/28 01:25:50;;;;;;;62.85;24.20;;;;;;;3.74;65.19;99977.36;1670453;81;21301;-83
2021/03/28 01:28:55;;;;;;;60.52;21.75;;;;;;;3.76;64.23;99979.53;1653287;85;21510;-85
2021/03/28 01:34:54;;;;;;;61.30;23.10;;;;;;;3.86;64.19;99976.69;1704213;84;21158;-82
2021/03/28 01:40:45;;;;;;;54.98;22.10;;;;;;;3.94;64.50;99981.14;1651156;86;21192;-85
2021/03/28 01:43:24;;;;;;;61.80;22.85;;;;;;;4.01;63.52;99984.66;1714251;79;21264;-87
2021/03/28 01:46:37;;;;;;;59.10;24.45;;;;;;;4.07;64.08;99977.46;1731047;81;21271;-83
2021/03/28 01:49:31;;;;;;;54.13;21.40;;;;;;;4.12;62.72;99977.13;1703705;82;21435;-84
2021/03/28 01:52:22;;;;;;;61.73;23.40;;;;;;;4.19;61.39;99975.92;1729398;83;21180;-85
2021/03/28 01:55:24;;;;;;;64.55;26.37;;;;;;;4.26;63.23;99981.16;1713420;81;21177;-86
2021/03/28 01:58:00;;;;;;;63.23;25.20;;;;;;;4.28;62.67;99984.66;1729894;80;21307;-85
2021/03/28 02:00:40;;;;;;;62.60;24.25;;;;;;;4.30;63.91;99986.40;1743562;80;21146;-87
2021/03/28 02:03:16;;;;;;;63.02;25.05;;;;;;;4.33;60.63;99981.70;1649415;86;21136;-87
2021/03/28 02:06:04;;;;;;;63.42;25.68;;;;;;;4.38;63.65;99977.50;1651019;83;21140;-85
2021/03/28 02:09:23;;;;;;;61.70;23.62;;;;;;;4.41;64.56;99969.80;1673059;84;21161;-89
2021/03/28 02:12:20;;;;;;;64.42;24.27;;;;;;;4.46;61.16;99986.20;1622932;87;21201;-90
2021/03/28 02:14:59;;;;;;;59.67;23.65;;;;;;;4.48;66.64;99979.36;1687167;80;21147;-88
2021/03/28 02:17:47;;;;;;;57.08;22.27;;;;;;;4.50;68.53;99974.23;1623085;87;21233;-90
2021/03/28 02:20:55;;;;;;;56.55;24.37;;;;;;;4.49;61.32;99964.77;1663574;84;21654;-82
2021/03/28 02:23:52;;;;;;;65.90;25.23;;;;;;;4.45;61.87;99975.87;1686213;81;22684;-87
2021/03/28 02:26:40;;;;;;;63.28;25.08;;;;;;;4.42;62.70;99970.27;1734051;81;21268;-85
2021/03/28 02:29:20;;;;;;;56.48;25.17;;;;;;;4.39;66.24;99968.91;1724061;81;21268;-84
2021/03/28 02:32:09;;;;;;;58.83;25.57;;;;;;;4.36;70.18;99976.62;1744931;80;21319;-87
2021/03/28 02:34:42;;;;;;;69.58;25.48;;;;;;;4.36;65.73;99981.33;1737026;80;21269;-85
2021/03/28 02:37:34;;;;;;;65.67;25.40;;;;;;;4.33;64.58;99978.70;1722766;82;21352;-84
2021/03/28 02:40:13;;;;;;;67.92;25.62;;;;;;;4.33;61.29;99977.84;1746325;80;21253;-85
2021/03/28 02:43:01;;;;;;;69.92;26.23;;;;;;;4.30;67.87;99983.83;1770402;79;21281;-84
2021/03/28 02:45:35;;;;;;;58.52;23.70;;;;;;;4.30;64.30;99981.25;1808931;79;21263;-85
2021/03/28 02:48:25;;;;;;;62.53;23.80;;;;;;;4.32;65.68;99985.14;1803116;79;21235;-85
2021/03/28 02:51:25;;;;;;;68.33;23.05;;;;;;;4.34;63.79;99986.88;1782575;80;21235;-84
2021/03/28 02:54:45;;;;;;;89.92;31.97;;;;;;;4.37;65.44;99983.48;1634115;85;22118;-84
2021/03/28 02:57:21;;;;;;;90.70;33.38;;;;;;;4.42;67.69;99992.55;1642955;85;21337;-86
2021/03/28 03:00:30;;;;;;;83.17;33.95;;;;;;;4.46;66.46;99987.48;1700131;81;21169;-86
2021/03/28 03:03:22;;;;;;;91.37;33.23;;;;;;;4.49;66.85;99984.93;1716396;81;21308;-87
2021/03/28 03:06:04;;;;;;;62.33;23.50;;;;;;;4.55;68.62;99988.02;1708522;81;21239;-83
2021/03/28 03:09:00;;;;;;;48.08;19.82;;;;;;;4.48;69.12;99993.52;1726873;80;21540;-83
2021/03/28 03:12:03;;;;;;;44.15;19.62;;;;;;;4.41;67.94;99990.40;1733085;80;21170;-85
2021/03/28 03:14:51;;;;;;;41.68;18.32;;;;;;;4.31;69.14;99994.55;1615237;86;21572;-84
2021/03/28 03:18:21;;;;;;;45.78;18.77;;;;;;;4.23;68.65;99996.58;1783307;79;22887;-87
2021/03/28 03:25:02;;;;;;;41.28;16.97;;;;;;;3.91;67.15;100003.37;1621626;86;21195;-82
2021/03/28 03:27:57;;;;;;;44.45;18.37;;;;;;;3.83;69.75;99994.66;1651771;84;21307;-84
2021/03/28 03:30:41;;;;;;;46.48;19.67;;;;;;;3.74;70.89;99994.96;1683964;80;21296;-86
2021/03/28 03:33:31;;;;;;;44.15;18.82;;;;;;;3.66;67.98;99990.11;1679757;84;21163;-84
2021/03/28 03:36:44;;;;;;;41.68;18.05;;;;;;;3.58;69.29;100001.94;1747045;77;22297;-80
2021/03/28 03:39:36;;;;;;;40.95;17.82;;;;;;;3.51;70.05;100000.98;1806647;78;21425;-85
2021/03/28 03:42:44;;;;;;;53.87;17.70;;;;;;;3.45;69.04;99989.73;1809055;78;21259;-85
2021/03/28 03:45:41;;;;;;;38.25;15.43;;;;;;;3.41;68.53;99999.52;1806516;78;21220;-84
2021/03/28 03:48:13;;;;;;;37.48;15.88;;;;;;;3.34;69.92;99999.80;1806049;78;21147;-80
2021/03/28 03:50:55;;;;;;;36.63;15.70;;;;;;;3.31;69.99;100002.33;1800861;78;21258;-83
2021/03/28 03:53:46;;;;;;;39.45;17.35;;;;;;;3.28;70.84;100000.58;1770649;78;21256;-81
2021/03/28 03:56:34;;;;;;;45.20;17.27;;;;;;;3.27;70.49;100000.54;1702925;79;21295;-83
2021/03/28 04:02:45;;;;;;;40.17;18.40;;;;;;;3.25;69.88;99996.64;1797896;78;21180;-82
2021/03/28 04:05:38;;;;;;;48.35;18.40;;;;;;;3.22;70.98;100002.14;1803941;78;21249;-80
2021/03/28 04:08:26;;;;;;;;;;;;;;;3.19;72.54;100001.67;1713632;80;21284;-82
2021/03/28 04:11:29;;;;;;;45.23;18.55;;;;;;;3.16;72.63;99998.64;1729213;80;20254;-81
2021/03/28 04:21:00;;;;;;;57.83;22.10;;;;;;;3.01;70.72;100001.32;1742094;77;21148;-82
2021/03/28 04:27:21;;;;;;;75.10;28.73;;;;;;;2.76;72.88;99988.82;1694793;78;21363;-84
2021/03/28 04:29:51;;;;;;;50.05;18.37;;;;;;;2.82;71.27;100008.62;1710524;78;21299;-82
2021/03/28 04:32:39;;;;;;;41.63;19.65;;;;;;;2.77;72.12;100002.13;1742958;78;22480;31
2021/03/28 04:35:38;;;;;;;51.25;20.30;;;;;;;2.76;73.10;100008.50;1750261;78;21263;-81
2021/03/28 04:38:53;;;;;;;41.60;17.77;;;;;;;2.74;74.68;100007.61;1763220;77;21208;31
2021/03/28 04:42:04;;;;;;;55.23;22.40;;;;;;;2.72;68.22;99991.30;1644888;85;21347;-81
2021/03/28 04:44:45;;;;;;;44.38;19.12;;;;;;;2.70;72.85;100003.24;1633426;87;21330;-83
2021/03/28 04:47:28;;;;;;;47.60;18.10;;;;;;;2.66;73.06;100006.58;1681006;80;21513;31
2021/03/28 04:50:19;;;;;;;38.83;18.07;;;;;;;2.66;72.68;100014.28;1700953;80;21291;-82
2021/03/28 04:53:20;;;;;;;43.15;17.65;;;;;;;2.66;74.46;100002.73;1741140;77;22527;31
2021/03/28 04:56:19;;;;;;;37.50;17.67;;;;;;;2.69;74.31;100002.38;1735806;79;21264;-78
2021/03/28 04:59:26;;;;;;;47.45;19.50;;;;;;;2.74;71.37;100011.45;1716021;80;21430;-83
2021/03/28 05:02:27;;;;;;;47.30;19.12;;;;;;;2.79;74.02;100002.16;1710330;81;21149;-85
2021/03/28 05:05:35;;;;;;;48.45;21.15;;;;;;;2.87;73.72;100012.59;1750831;77;21235;-81
2021/03/28 05:08:49;;;;;;;45.75;21.10;;;;;;;2.89;71.62;100015.64;1735204;79;21276;-84
2021/03/28 05:12:01;;;;;;;44.73;19.75;;;;;;;2.97;75.67;100024.79;1854322;77;23384;-80
2021/03/28 05:14:52;;;;;;;44.10;19.67;;;;;;;2.92;68.91;100020.82;1806327;78;21261;-80
2021/03/28 05:17:59;;;;;;;44.38;18.12;;;;;;;2.94;74.84;100017.01;1819128;76;21290;-83
2021/03/28 05:21:22;;;;;;;36.65;16.67;;;;;;;2.98;76.81;100017.52;1803350;78;21493;-84
2021/03/28 05:24:07;;;;;;;36.25;14.18;;;;;;;3.05;76.32;100021.09;1730744;78;21111;-81
2021/03/28 05:27:12;;;;;;;36.23;14.25;;;;;;;3.15;74.94;100028.15;1715542;81;21176;-83
2021/03/28 05:30:07;;;;;;;36.77;13.35;;;;;;;3.21;74.54;100037.26;1697890;82;21308;-80
2021/03/28 05:33:01;;;;;;;28.77;11.57;;;;;;;3.34;73.43;100044.78;1683452;83;21261;-84
2021/03/28 05:35:51;;;;;;;26.12;12.28;;;;;;;3.49;72.88;100035.22;1675746;82;21244;-83
2021/03/28 05:39:08;;;;;;;27.58;11.53;;;;;;;3.63;71.89;100027.33;1664969;85;21305;-84
2021/03/28 05:41:50;;;;;;;26.68;11.63;;;;;;;3.79;71.56;100035.75;1639835;85;21253;-83
2021/03/28 05:44:38;;;;;;;25.77;10.50;;;;;;;4.00;69.58;100025.41;1674957;83;21248;-84
2021/03/28 05:47:42;;;;;;;27.32;10.82;;;;;;;4.14;71.18;100039.35;1682099;84;21280;-83
2021/03/28 05:50:39;;;;;;;27.80;11.43;;;;;;;4.35;70.62;100049.53;1653667;87;21378;-83
2021/03/28 05:53:30;;;;;;;23.30;11.08;;;;;;;4.54;69.64;100033.95;1639858;87;21320;-84
2021/03/28 05:56:33;;;;;;;25.05;11.15;;;;;;;4.72;69.58;100034.63;1650886;86;21292;-84
2021/03/28 05:59:28;;;;;;;28.00;12.60;;;;;;;4.89;69.75;100039.98;1664333;82;21292;-84
2021/03/28 06:02:34;;;;;;;23.55;10.23;;;;;;;5.09;69.53;100035.97;1638947;85;21186;-85
2021/03/28 06:05:43;;;;;;;27.07;11.85;;;;;;;5.28;68.67;100038.33;1636829;84;21169;-84
2021/03/28 06:08:19;;;;;;;25.10;11.05;;;;;;;5.52;67.99;100040.73;1633304;83;21311;-85
2021/03/28 06:11:22;;;;;;;29.18;11.57;;;;;;;5.78;67.33;100047.44;1663334;81;21227;-84
2021/03/28 06:14:33;;;;;;;28.85;12.53;;;;;;;5.97;67.24;100042.92;1643373;82;21352;-85
2021/03/28 06:17:15;;;;;;;30.70;11.95;;;;;;;6.10;67.14;100024.52;1587264;85;21584;-86
2021/03/28 06:20:25;;;;;;;30.55;11.65;;;;;;;6.44;66.95;100049.30;1677125;83;21296;-88
2021/03/28 06:23:46;;;;;;;26.87;11.97;;;;;;;6.66;66.28;100044.28;1708914;81;21343;-85
2021/03/28 06:26:56;;;;;;;32.05;12.30;;;;;;;6.86;65.41;100049.12;1664067;82;21165;-86
2021/03/28 06:29:53;;;;;;;27.32;11.22;;;;;;;7.12;65.01;100052.27;1682116;85;21298;-84
2021/03/28 06:33:05;;;;;;;33.70;11.75;;;;;;;7.33;64.95;100048.91;1681179;83;21660;-82
2021/03/28 06:35:59;;;;;;;24.70;11.97;;;;;;;7.41;64.47;100036.00;1694009;85;21305;-84
2021/03/28 06:39:07;;;;;;;21.87;10.75;;;;;;;7.64;63.84;100051.16;1651774;86;21382;-84
2021/03/28 06:41:59;;;;;;;27.73;13.48;;;;;;;7.73;63.96;100049.01;1676337;81;21263;-83
2021/03/28 06:45:03;;;;;;;34.03;13.10;;;;;;;7.81;64.21;100060.23;1672284;84;21286;-84
2021/03/28 06:48:00;;;;;;;27.80;10.98;;;;;;;7.96;64.77;100053.79;1687996;83;21298;-84
2021/03/28 06:51:09;;;;;;;27.25;11.15;;;;;;;8.21;64.79;100058.11;1682541;83;21200;-82
2021/03/28 06:54:13;;;;;;;23.18;11.65;;;;;;;8.42;65.16;100049.07;1679840;85;21410;-84
2021/03/28 06:57:04;;;;;;;24.20;11.73;;;;;;;8.69;64.73;100057.22;1690943;83;21290;-84
2021/03/28 06:59:59;;;;;;;28.05;11.65;;;;;;;8.88;64.22;100039.89;1668517;85;21322;-84
2021/03/28 07:03:18;;;;;;;26.35;12.30;;;;;;;9.14;63.74;100046.28;1674497;84;21179;-84
2021/03/28 07:06:15;;;;;;;21.90;11.28;;;;;;;9.34;63.20;100056.57;1681898;83;21255;-83
2021/03/28 07:09:19;;;;;;;26.17;11.57;;;;;;;9.53;62.24;100059.09;1691072;85;21183;-83
2021/03/28 07:12:21;;;;;;;29.48;12.75;;;;;;;9.58;61.96;100066.85;1674090;85;22072;-84
2021/03/28 07:15:07;;;;;;;27.52;12.82;;;;;;;9.65;61.23;100066.81;1672833;85;22059;-85
2021/03/28 07:18:11;;;;;;;27.55;12.33;;;;;;;9.75;60.35;100074.11;1686373;84;21294;-84
2021/03/28 07:20:53;;;;;;;25.88;12.18;;;;;;;9.85;60.21;100078.82;1672558;85;21274;-84
2021/03/28 07:23:56;;;;;;;27.15;11.35;;;;;;;9.94;59.43;100085.23;1684163;85;21239;-83
2021/03/28 07:27:07;;;;;;;23.02;11.50;;;;;;;10.03;59.19;100090.82;1705367;84;21356;-84
2021/03/28 07:30:11;;;;;;;23.57;10.63;;;;;;;10.09;58.87;100072.59;1711965;83;21300;-83
2021/03/28 07:32:54;;;;;;;;;;;;;;;10.20;59.06;100082.44;1698375;84;21108;-83
2021/03/28 07:35:45;;;;;;;23.57;11.08;;;;;;;10.32;58.14;100084.11;1689045;84;20118;-85
2021/03/28 07:38:39;;;;;;;29.18;12.40;;;;;;;10.28;57.67;100089.73;1704244;84;21319;-84
2021/03/28 07:41:50;;;;;;;27.00;10.78;;;;;;;10.07;57.39;100086.03;1691161;84;21273;-83
2021/03/28 07:44:28;;;;;;;27.05;10.95;;;;;;;10.01;57.13;100112.91;1710139;82;21676;-83
2021/03/28 07:47:25;;;;;;;30.57;11.20;;;;;;;9.93;56.76;100110.80;1717350;82;21280;-84
2021/03/28 07:50:28;;;;;;;19.32;9.85;;;;;;;9.87;56.90;100114.29;1717317;84;21247;-84
2021/03/28 07:53:38;;;;;;;23.62;10.68;;;;;;;9.84;57.24;100116.03;1717569;84;21259;-84
2021/03/28 07:56:36;;;;;;;24.77;11.10;;;;;;;9.86;57.25;100134.63;1704711;84;21218;-83
2021/03/28 07:59:32;;;;;;;21.42;10.98;;;;;;;9.82;57.53;100145.91;1714948;84;21285;-84
2021/03/28 08:02:37;;;;;;;24.52;11.65;;;;;;;9.79;57.91;100145.05;1717720;83;21242;-84
2021/03/28 08:05:28;;;;;;;22.75;10.93;;;;;;;9.83;58.32;100154.55;1717713;83;21234;-84
2021/03/28 08:08:30;;;;;;;24.85;11.22;;;;;;;9.99;58.28;100146.23;1699687;82;21282;-84
2021/03/28 08:11:27;;;;;;;20.80;9.58;;;;;;;10.14;57.50;100154.80;1693246;84;21296;-84
2021/03/28 08:14:30;;;;;;;22.50;9.90;;;;;;;10.19;56.98;100159.14;1707953;84;21298;-83
2021/03/28 08:17:21;;;;;;;21.85;8.78;;;;;;;10.15;57.17;100174.73;1688528;84;21119;-83
2021/03/28 08:20:23;;;;;;;17.02;8.95;;;;;;;10.18;57.13;100178.19;1688232;85;21202;-84
2021/03/28 08:23:29;;;;;;;24.67;8.70;;;;;;;10.20;57.02;100171.24;1702863;84;21225;-83
2021/03/28 08:26:14;;;;;;;23.38;10.00;;;;;;;10.33;56.93;100195.02;1686421;84;21354;-83
2021/03/28 08:29:12;;;;;;;23.12;9.50;;;;;;;10.38;56.79;100193.23;1690047;83;21277;-83
2021/03/28 08:32:12;;;;;;;20.32;9.85;;;;;;;10.38;57.29;100206.68;1704207;83;21306;-83
2021/03/28 08:35:17;;;;;;;18.23;9.48;;;;;;;10.45;56.99;100196.23;1697550;83;21183;-81
2021/03/28 08:38:26;;;;;;;19.45;10.20;;;;;;;10.53;57.25;100201.38;1691394;83;21298;-83
2021/03/28 08:41:05;;;;;;;20.62;9.15;;;;;;;10.58;56.80;100205.24;1670116;84;21286;-85
2021/03/28 08:43:50;;;;;;;19.27;8.00;;;;;;;10.79;56.61;100197.27;1674170;85;21176;-85
2021/03/28 08:47:03;;;;;;;20.92;8.98;;;;;;;10.87;56.44;100212.83;1684983;85;21146;-85
2021/03/28 08:50:05;;;;;;;19.15;8.25;;;;;;;10.90;55.61;100209.77;1691659;85;21172;-84
2021/03/28 08:53:23;;;;;;;15.23;7.47;;;;;;;10.99;55.27;100210.55;1694227;83;21298;-84
2021/03/28 08:56:25;;;;;;;16.57;7.45;;;;;;;11.03;55.43;100206.60;1667126;83;21282;-82
2021/03/28 08:59:35;;;;;;;16.12;8.23;;;;;;;11.15;55.38;100216.04;1692072;85;21121;-84
2021/03/28 09:02:11;;;;;;;16.27;7.58;;;;;;;11.22;55.55;100220.32;1667034;85;21299;-85
2021/03/28 09:04:53;;;;;;;14.68;8.00;;;;;;;11.20;55.28;100225.98;1670805;85;21780;-85
2021/03/28 09:07:38;;;;;;;17.40;7.50;;;;;;;11.29;55.25;100238.88;1662935;85;21314;-83
2021/03/28 09:10:29;;;;;;;21.93;7.72;;;;;;;11.41;55.01;100236.59;1694583;83;21215;-84
2021/03/28 09:13:31;;;;;;;18.30;9.07;;;;;;;11.53;55.09;100231.70;1815116;77;30165;-87
2021/03/28 09:16:28;;;;;;;16.20;7.87;;;;;;;11.64;54.62;100225.06;1790331;77;21243;-83
2021/03/28 09:19:18;;;;;;;13.58;7.08;;;;;;;11.74;53.96;100217.59;1810415;79;21438;-83
2021/03/28 09:21:53;;;;;;;17.65;7.58;;;;;;;11.75;53.76;100227.97;1817260;77;21272;-84
2021/03/28 09:24:38;;;;;;;17.20;7.65;;;;;;;11.84;53.43;100214.44;1815184;79;21141;-83
2021/03/28 09:27:29;;;;;;;16.73;6.92;;;;;;;12.09;53.45;100230.63;1812253;79;22215;-82
2021/03/28 09:30:11;;;;;;;17.15;8.00;;;;;;;12.17;52.96;100224.02;1786413;80;21150;-81
2021/03/28 09:33:01;;;;;;;13.13;6.35;;;;;;;12.26;52.68;100233.03;1790295;79;21253;-84
2021/03/28 09:36:04;;;;;;;13.05;6.72;;;;;;;12.19;51.80;100236.59;1794655;79;21300;-84
2021/03/28 09:39:05;;;;;;;13.98;7.03;;;;;;;12.32;51.98;100227.73;1824241;79;21291;-82
2021/03/28 09:42:00;;;;;;;15.28;6.53;;;;;;;12.44;51.65;100227.55;1811567;79;21228;-83
2021/03/28 09:45:14;;;;;;;18.70;7.15;;;;;;;12.41;51.75;100218.45;1800961;79;21276;-85
2021/03/28 09:48:27;;;;;;;15.72;5.95;;;;;;;12.48;51.28;100229.67;1796157;78;21186;-84
2021/03/28 09:51:20;;;;;;;10.98;6.10;;;;;;;12.61;50.79;100231.19;1803228;79;21271;-84
2021/03/28 09:54:10;;;;;;;13.70;6.05;;;;;;;12.60;50.76;100222.11;1793519;79;21145;-84
2021/03/28 09:57:06;;;;;;;19.23;7.22;;;;;;;12.48;50.23;100213.57;1792605;79;21287;-85
2021/03/28 09:59:48;;;;;;;14.38;5.80;;;;;;;12.73;50.31;100229.72;1814162;79;21299;-85
2021/03/28 10:02:50;;;;;;;13.78;4.97;;;;;;;12.67;50.06;100224.60;1803999;79;21278;-83
2021/03/28 10:05:23;;;;;;;15.50;5.35;;;;;;;12.70;49.65;100236.73;1789643;80;21345;-84
2021/03/28 10:08:10;;;;;;;15.55;5.75;;;;;;;12.73;49.60;100227.11;1812365;79;21264;-83
2021/03/28 10:11:01;;;;;;;12.63;5.22;;;;;;;12.81;49.40;100212.64;1805161;79;21237;-85
2021/03/28 10:14:05;;;;;;;12.45;5.20;;;;;;;12.90;49.07;100219.44;1793251;79;21264;-84
2021/03/28 10:16:41;;;;;;;13.32;5.72;;;;;;;12.99;48.85;100207.55;1817645;79;21284;-82
2021/03/28 10:19:35;;;;;;;15.00;6.40;;;;;;;13.13;48.29;100218.61;1809239;79;21297;-83
2021/03/28 10:22:26;;;;;;;12.33;5.45;;;;;;;13.13;48.20;100216.45;1782274;79;21283;-82
2021/03/28 10:25:16;;;;;;;13.03;5.30;;;;;;;13.12;48.36;100208.19;1809352;79;21288;-84
2021/03/28 10:27:55;;;;;;;11.08;5.47;;;;;;;13.10;48.17;100226.93;1805746;79;21609;-84
2021/03/28 10:30:37;;;;;;;19.30;5.83;;;;;;;13.34;47.96;100224.36;1819780;79;21284;-83
2021/03/28 10:33:46;;;;;;;13.68;6.45;;;;;;;13.35;47.34;100226.09;1814393;79;21296;-82
2021/03/28 10:36:49;;;;;;;12.73;5.37;;;;;;;13.35;47.33;100237.84;1789643;79;21253;-83
2021/03/28 10:39:31;;;;;;;17.20;5.40;;;;;;;13.43;46.92;100224.62;1817369;79;21126;-84
2021/03/28 10:42:37;;;;;;;19.73;5.50;;;;;;;13.48;47.04;100237.16;1809261;79;21320;-82
2021/03/28 10:45:44;;;;;;;12.75;5.50;;;;;;;13.63;46.28;100251.25;1797505;77;22936;-82
2021/03/28 10:48:52;;;;;;;12.23;5.35;;;;;;;13.71;46.29;100255.88;1746119;80;21189;-83
2021/03/28 10:51:54;;;;;;;9.65;4.80;;;;;;;13.70;45.92;100250.67;1796238;79;21303;-81
2021/03/28 10:55:05;;;;;;;10.25;4.85;;;;;;;13.79;45.90;100249.20;1801560;79;21113;-81
2021/03/28 10:58:10;;;;;;;13.40;5.20;;;;;;;13.66;45.17;100245.95;1803199;79;21179;-83
2021/03/28 11:01:30;;;;;;;16.87;5.28;;;;;;;13.70;44.76;100249.37;1790322;79;21303;-82
2021/03/28 11:04:12;;;;;;;12.65;4.92;;;;;;;13.66;45.30;100264.69;1722697;82;21195;-81
2021/03/28 11:06:51;;;;;;;11.25;4.83;;;;;;;13.71;45.55;100280.70;1693070;83;21687;-81
2021/03/28 11:09:43;;;;;;;10.25;5.53;;;;;;;13.76;45.77;100245.78;1692916;83;21180;-81
2021/03/28 11:12:32;;;;;;;10.98;4.58;;;;;;;13.80;45.31;100252.66;1791694;79;21319;-82
2021/03/28 11:15:54;;;;;;;16.32;5.35;;;;;;;13.84;45.32;100251.70;1801797;79;21260;-79
2021/03/28 11:18:39;;;;;;;9.53;4.90;;;;;;;13.78;45.20;100263.59;1801643;78;21180;-80
2021/03/28 11:21:36;;;;;;;11.57;5.12;;;;;;;13.85;45.16;100252.14;1793268;79;21331;-82
2021/03/28 11:24:36;;;;;;;9.93;5.10;;;;;;;13.85;45.06;100267.83;1794870;79;21171;-82
2021/03/28 11:27:30;;;;;;;11.53;5.05;;;;;;;13.93;44.68;100247.16;1763432;81;21306;-82
2021/03/28 11:30:04;;;;;;;;;;;;;;;14.09;44.72;100250.77;1753252;81;21169;-82
2021/03/28 11:32:53;;;;;;;10.32;4.90;;;;;;;14.12;43.78;100248.96;1755053;81;20288;-84
2021/03/28 11:35:37;;;;;;;7.33;4.37;;;;;;;14.17;43.03;100243.63;1799902;79;21236;-81
2021/03/28 11:38:22;;;;;;;15.45;4.83;;;;;;;14.26;43.71;100249.09;1796765;79;21267;-83
2021/03/28 11:41:15;;;;;;;9.48;3.90;;;;;;;13.98;43.81;100256.20;1795905;78;21269;-81
2021/03/28 11:43:57;;;;;;;8.18;4.20;;;;;;;14.09;38.07;100267.31;1786981;79;21150;-81
2021/03/28 11:46:37;;;;;;;6.53;3.45;;;;;;;14.32;40.91;100267.27;1782772;79;21257;-82
2021/03/28 11:49:12;;;;;;;6.37;3.50;;;;;;;14.39;38.17;100259.70;1774511;79;21265;-82
2021/03/28 11:51:54;;;;;;;10.82;3.92;;;;;;;14.32;35.68;100255.06;1785981;79;21162;-80
2021/03/28 11:54:28;;;;;;;9.00;3.85;;;;;;;14.40;36.15;100256.17;1791129;79;21641;-81
2021/03/28 11:57:06;;;;;;;8.83;4.25;;;;;;;14.51;35.63;100257.27;1789192;79;21297;-84
2021/03/28 11:59:51;;;;;;;14.60;5.65;;;;;;;14.41;35.41;100261.84;1781109;79;21620;-82
2021/03/28 12:02:26;;;;;;;8.55;4.00;;;;;;;14.51;35.81;100263.34;1792916;79;21282;-82
2021/03/28 12:05:10;;;;;;;10.45;4.00;;;;;;;14.81;35.28;100262.72;1779315;79;21442;-84
2021/03/28 12:07:44;;;;;;;7.70;3.02;;;;;;;15.25;33.98;100260.29;1777675;79;21258;-83
2021/03/28 12:10:17;;;;;;;10.45;3.60;;;;;;;15.30;34.33;100264.98;1792742;79;21239;-86
2021/03/28 12:30:47;;;;;;;7.60;3.90;;;;;;;16.86;33.05;100260.06;1719084;82;21146;-84
2021/03/28 12:33:26;;;;;;;6.60;3.50;;;;;;;16.77;31.59;100262.98;1723708;82;21580;-83
2021/03/28 12:36:02;;;;;;;7.47;3.70;;;;;;;16.99;31.98;100257.03;1707958;82;21300;-81
2021/03/28 12:38:35;;;;;;;6.28;3.25;;;;;;;16.88;32.08;100267.44;1716188;82;21340;-84
2021/03/28 12:41:15;;;;;;;7.22;3.30;;;;;;;17.17;30.97;100250.30;1736818;82;21223;-87
2021/03/28 12:43:48;;;;;;;6.60;3.20;;;;;;;17.42;30.02;100258.22;1732368;81;21198;-84
2021/03/28 12:46:48;;;;;;;7.30;3.17;;;;;;;16.86;30.22;100246.93;1721017;82;21300;-86
2021/03/28 12:49:33;;;;;;;6.55;3.22;;;;;;;16.50;30.40;100248.48;1708614;82;21301;-86
2021/03/28 12:55:32;;;;;;;5.97;3.15;;;;;;;17.06;29.68;100249.36;1659436;86;21172;-84
2021/03/28 12:58:14;;;;;;;5.58;2.92;;;;;;;17.63;28.99;100257.47;1719685;82;21220;-85
2021/03/28 13:00:53;;;;;;;5.05;2.75;;;;;;;18.03;27.47;100250.78;1720646;82;21164;-81
2021/03/28 13:03:35;;;;;;;5.10;2.77;;;;;;;18.09;26.99;100260.22;1723001;82;21568;-84
2021/03/28 13:06:32;;;;;;;7.08;2.30;;;;;;;18.00;26.53;100247.39;1734757;79;21090;-85
2021/03/28 13:09:19;;;;;;;3.85;2.20;;;;;;;18.97;24.59;100236.58;1790575;79;21278;-83
2021/03/28 13:11:56;;;;;;;4.70;2.55;;;;;;;19.73;23.11;100246.55;1778503;80;21307;-85
2021/03/28 13:14:42;;;;;;;5.72;2.33;;;;;;;19.05;22.47;100234.47;1775103;80;21600;-85
2021/03/28 13:17:19;;;;;;;5.60;2.52;;;;;;;19.65;23.55;100237.63;1760811;80;22343;-83
2021/03/28 13:19:51;;;;;;;5.53;2.75;;;;;;;20.09;22.09;100254.58;1780278;80;21175;-84
2021/03/28 13:22:39;;;;;;;4.87;2.62;;;;;;;19.66;23.00;100249.44;1764276;80;21318;-81
2021/03/28 13:25:32;;;;;;;4.20;2.27;;;;;;;19.57;22.62;100244.55;1778619;80;21103;-87
2021/03/28 13:29:08;;;;;;;5.90;2.12;;;;;;;19.77;22.73;100254.72;1699336;80;21145;-85
2021/03/28 13:32:16;;;;;;;4.30;2.20;;;;;;;20.70;22.16;100248.22;1798610;78;23137;-82
2021/03/28 13:34:59;;;;;;;5.10;2.40;;;;;;;20.24;21.49;100252.55;1717723;81;21331;-84
2021/03/28 13:37:48;;;;;;;5.40;2.27;;;;;;;20.49;21.08;100248.74;1724291;83;21338;-83
2021/03/28 13:40:18;;;;;;;9.65;2.70;;;;;;;20.01;20.77;100249.64;1720029;83;21153;-86
2021/03/28 13:42:56;;;;;;;5.83;2.02;;;;;;;20.42;21.42;100241.59;1723124;83;21327;-86
2021/03/28 13:45:33;;;;;;;8.03;2.15;;;;;;;20.42;19.85;100253.95;1719525;82;21286;-86
2021/03/28 13:48:13;;;;;;;3.80;2.27;;;;;;;19.98;19.35;100240.56;1708530;83;21301;-87
2021/03/28 13:51:01;;;;;;;5.00;1.80;;;;;;;20.62;20.17;100249.06;1702530;83;21207;-86
2021/03/28 13:53:39;;;;;;;4.40;1.90;;;;;;;19.51;20.08;100242.66;1713941;82;21316;-85
2021/03/28 13:56:48;;;;;;;4.53;2.10;;;;;;;19.89;20.86;100240.13;1747011;81;21205;-85
2021/03/28 13:59:28;;;;;;;3.55;1.80;;;;;;;19.90;19.92;100240.06;1716069;83;21304;-85
2021/03/28 14:02:21;;;;;;;4.42;2.12;;;;;;;20.32;20.03;100247.39;1699190;83;21166;-84
2021/03/28 14:05:03;;;;;;;5.62;2.92;;;;;;;20.99;21.57;100255.16;1740741;81;21302;-86
2021/03/28 14:07:46;;;;;;;4.58;2.22;;;;;;;20.49;24.82;100242.61;1716316;83;21193;-85
2021/03/28 14:10:19;;;;;;;14.73;7.55;;;;;;;20.52;25.36;100252.57;1709422;83;21166;-84
2021/03/28 14:13:06;;;;;;;9.03;4.37;;;;;;;20.02;25.66;100255.33;1720757;83;21190;-84
2021/03/28 14:15:47;;;;;;;10.98;5.33;;;;;;;19.99;26.00;100247.54;1705808;83;21198;-85